Time;durP1;ratioP1;P1;durP2;ratioP2;P2;SDS_P1;SDS_P2;PMS_P1;PMS_P2;Temp;Humidity;BMP_temperature;BMP_pressure;BME280_temperature;BME280_humidity;BME280_pressure;Samples;Min_cycle;Max_cycle;Signal;HPM_P1;HPM_P2
2022/10/19 00:01:29;;;;;;;19.05;9.38;;;;;;;13.84;47.29;99639.89;1704580;83;21056;-74
2022/10/19 00:03:57;;;;;;;18.90;8.93;;;;;;;13.79;47.39;99638.00;1703295;83;21797;-75
2022/10/19 00:06:31;;;;;;;19.25;8.80;;;;;;;13.77;47.50;99628.53;1701925;83;21067;-74
2022/10/19 00:09:00;;;;;;;23.07;9.65;;;;;;;13.76;47.60;99628.28;1704746;83;21043;-74
2022/10/19 00:11:29;;;;;;;18.95;10.00;;;;;;;13.72;47.66;99619.88;1708218;82;21524;-75
2022/10/19 00:13:56;;;;;;;17.20;8.98;;;;;;;13.69;47.80;99610.16;1715097;83;21031;-76
2022/10/19 00:16:25;;;;;;;20.80;9.78;;;;;;;13.65;47.93;99613.15;1721887;83;22101;-75
2022/10/19 00:18:58;;;;;;;20.57;8.90;;;;;;;13.62;48.04;99611.00;1721611;83;21038;-73
2022/10/19 00:21:25;;;;;;;24.82;9.63;;;;;;;13.58;48.20;99605.84;1715651;82;21016;-75
2022/10/19 00:23:52;;;;;;;17.52;9.15;;;;;;;13.56;48.31;99606.67;1703423;83;21049;-75
2022/10/19 00:26:19;;;;;;;13.30;8.15;;;;;;;13.50;48.44;99593.16;1709150;83;21086;-72
2022/10/19 00:28:46;;;;;;;18.73;9.10;;;;;;;13.49;48.58;99597.48;1717367;82;22100;-69
2022/10/19 00:31:15;;;;;;;16.05;9.30;;;;;;;13.45;48.68;99583.70;1703942;83;21024;-73
2022/10/19 00:33:45;;;;;;;16.15;10.20;;;;;;;13.43;48.85;99579.10;1701490;84;21510;-73
2022/10/19 00:36:25;;;;;;;19.92;9.65;;;;;;;13.42;48.93;99576.16;1716041;82;21023;-72
2022/10/19 00:38:52;;;;;;;13.95;8.43;;;;;;;13.40;49.02;99570.73;1724465;83;21595;-70
2022/10/19 00:41:20;;;;;;;16.00;8.93;;;;;;;13.37;49.22;99560.48;1696254;83;21625;-68
2022/10/19 00:44:01;;;;;;;20.75;9.75;;;;;;;13.36;49.30;99552.10;1701265;83;21568;-68
2022/10/19 00:46:31;;;;;;;14.70;9.03;;;;;;;13.32;49.40;99546.98;1720168;83;21051;-70
2022/10/19 00:49:09;;;;;;;17.10;10.55;;;;;;;13.28;49.75;99545.38;1724250;82;21603;-69
2022/10/19 00:51:39;;;;;;;22.90;9.45;;;;;;;13.26;49.75;99547.52;1732209;82;21075;-69
2022/10/19 00:54:06;;;;;;;16.62;9.10;;;;;;;13.24;49.85;99536.70;1712330;83;21107;-71
2022/10/19 00:56:33;;;;;;;18.07;10.18;;;;;;;13.21;49.94;99530.50;1711670;83;21066;-69
2022/10/19 00:59:03;;;;;;;21.87;9.58;;;;;;;13.19;50.07;99526.70;1711655;83;21090;-68
2022/10/19 01:01:29;;;;;;;14.03;9.33;;;;;;;13.18;50.19;99520.25;1726004;82;20963;-69
2022/10/19 01:03:56;;;;;;;15.83;9.28;;;;;;;13.15;50.28;99522.94;1720135;82;21077;-71
2022/10/19 01:06:23;;;;;;;18.30;10.00;;;;;;;13.13;50.36;99521.06;1702088;83;21206;-85
2022/10/19 01:08:50;;;;;;;14.00;9.33;;;;;;;13.10;50.51;99513.45;1700730;84;20980;-83
2022/10/19 01:11:30;;;;;;;17.15;9.25;;;;;;;13.07;50.75;99516.70;1679158;85;21082;-84
2022/10/19 01:14:37;;;;;;;16.17;9.88;;;;;;;13.03;50.92;99507.53;1695511;83;21046;-71
2022/10/19 01:17:15;;;;;;;18.35;9.98;;;;;;;13.00;51.08;99510.75;1704707;82;21006;-73
2022/10/19 01:20:08;;;;;;;14.05;8.68;;;;;;;12.97;51.26;99506.71;1704604;82;21143;-71
2022/10/19 01:22:45;;;;;;;;;;;;;;;12.93;51.46;99494.84;1702625;83;21103;-77
2022/10/19 01:25:45;;;;;;;23.20;10.40;;;;;;;12.92;51.57;99493.75;1693931;83;20183;-70
2022/10/19 01:28:49;;;;;;;20.25;9.93;;;;;;;12.89;51.77;99489.72;1700279;84;21553;-71
2022/10/19 01:31:28;;;;;;;18.00;9.68;;;;;;;12.86;52.02;99489.42;1726159;83;20991;-73
2022/10/19 01:34:12;;;;;;;21.10;10.20;;;;;;;12.84;52.19;99490.25;1676175;85;21156;-73
2022/10/19 01:37:05;;;;;;;24.57;11.80;;;;;;;12.84;52.37;99486.20;1665746;85;21065;-72
2022/10/19 01:39:44;;;;;;;18.65;10.23;;;;;;;12.81;52.61;99481.32;1675887;85;21067;-70
2022/10/19 01:42:22;;;;;;;21.70;10.70;;;;;;;12.80;52.70;99476.49;1692892;83;20960;-71
2022/10/19 01:45:03;;;;;;;18.00;10.53;;;;;;;12.79;52.81;99475.40;1677676;84;21043;-70
2022/10/19 01:47:44;;;;;;;20.50;10.88;;;;;;;12.78;52.94;99478.64;1699914;84;21428;-71
2022/10/19 01:50:25;;;;;;;19.07;10.85;;;;;;;12.76;53.15;99471.34;1704374;84;20954;-72
2022/10/19 01:52:52;;;;;;;18.65;9.75;;;;;;;12.74;53.26;99468.66;1703010;83;20971;-71
2022/10/19 01:55:20;;;;;;;14.47;9.30;;;;;;;12.73;53.45;99467.02;1704373;84;21094;-71
2022/10/19 01:57:51;;;;;;;12.43;9.43;;;;;;;12.70;53.61;99467.04;1704201;84;21027;-74
2022/10/19 02:00:18;;;;;;;22.05;11.12;;;;;;;12.67;54.05;99461.63;1704570;82;21144;-74
2022/10/19 02:02:47;;;;;;;16.15;9.83;;;;;;;12.65;54.38;99448.95;1703781;83;20944;-74
2022/10/19 02:05:14;;;;;;;22.50;11.05;;;;;;;12.64;54.39;99455.42;1704407;84;20982;-74
2022/10/19 02:07:40;;;;;;;14.68;9.75;;;;;;;12.65;54.52;99454.89;1704407;84;21102;-73
2022/10/19 02:10:08;;;;;;;17.80;9.45;;;;;;;12.62;54.69;99454.88;1704490;84;21000;-75
2022/10/19 02:12:34;;;;;;;17.35;10.15;;;;;;;12.60;54.86;99449.48;1705980;83;21118;-80
2022/10/19 02:15:13;;;;;;;20.95;9.88;;;;;;;12.58;55.14;99449.75;1704689;82;21508;-80
2022/10/19 02:17:44;;;;;;;20.05;12.00;;;;;;;12.57;55.33;99441.38;1710897;83;21547;-81
2022/10/19 02:20:13;;;;;;;15.53;10.85;;;;;;;12.56;55.48;99446.53;1688853;82;28636;-82
2022/10/19 02:22:39;;;;;;;15.15;10.30;;;;;;;12.55;55.74;99442.20;1711094;83;20988;-82
2022/10/19 02:25:08;;;;;;;21.60;12.07;;;;;;;12.53;56.08;99441.65;1717980;82;20932;-81
2022/10/19 02:27:34;;;;;;;21.35;10.53;;;;;;;12.51;56.29;99444.36;1731133;82;21041;-81
2022/10/19 02:30:01;;;;;;;20.02;10.38;;;;;;;12.49;56.94;99440.57;1686151;84;21824;-83
2022/10/19 02:32:27;;;;;;;18.10;10.88;;;;;;;12.47;57.00;99428.45;1725848;82;21532;-80
2022/10/19 02:34:54;;;;;;;17.15;9.88;;;;;;;12.48;56.95;99434.09;1727991;83;21038;-80
2022/10/19 02:37:21;;;;;;;19.60;10.70;;;;;;;12.46;57.12;99433.56;1727869;83;21268;-80
2022/10/19 02:39:47;;;;;;;16.70;10.82;;;;;;;12.45;57.75;99435.45;1706805;82;20990;-81
2022/10/19 02:42:34;;;;;;;16.35;10.08;;;;;;;12.44;57.85;99443.80;1699354;83;20999;-80
2022/10/19 02:45:29;;;;;;;17.52;10.68;;;;;;;12.44;58.04;99438.40;1722073;83;20966;-77
2022/10/19 02:48:01;;;;;;;14.45;10.58;;;;;;;12.44;58.63;99437.05;1696783;83;21030;-78
2022/10/19 02:50:28;;;;;;;13.68;10.00;;;;;;;12.44;58.95;99433.00;1713358;82;21276;-78
2022/10/19 02:52:56;;;;;;;15.72;11.18;;;;;;;12.44;59.21;99443.27;1728125;83;20984;-77
2022/10/19 02:55:22;;;;;;;15.38;10.75;;;;;;;12.45;59.82;99434.63;1686586;82;20990;-78
2022/10/19 02:57:49;;;;;;;26.07;11.18;;;;;;;12.45;60.05;99442.72;1729951;82;21573;-77
2022/10/19 03:00:15;;;;;;;20.43;12.20;;;;;;;12.46;60.12;99444.34;1713052;83;21679;-79
2022/10/19 03:02:43;;;;;;;21.75;12.20;;;;;;;12.48;61.08;99446.22;1665726;83;21148;-78
2022/10/19 03:05:10;;;;;;;18.10;11.55;;;;;;;12.49;60.93;99444.61;1712343;83;21082;-79
2022/10/19 03:07:37;;;;;;;18.60;11.63;;;;;;;12.51;61.13;99439.78;1712708;83;21072;-76
2022/10/19 03:10:05;;;;;;;15.00;10.48;;;;;;;12.53;61.37;99437.60;1728021;82;21031;-78
2022/10/19 03:12:32;;;;;;;21.85;11.93;;;;;;;12.54;61.67;99436.53;1693311;83;21029;-79
2022/10/19 03:14:59;;;;;;;14.78;10.43;;;;;;;12.54;61.82;99429.78;1710434;82;21035;-77
2022/10/19 03:17:26;;;;;;;18.20;10.60;;;;;;;12.55;62.05;99433.30;1709142;82;22230;-80
2022/10/19 03:19:52;;;;;;;18.95;11.40;;;;;;;12.55;62.28;99424.67;1725583;82;21016;-77
2022/10/19 03:22:19;;;;;;;17.67;11.75;;;;;;;12.56;62.76;99416.03;1718333;82;21024;-80
2022/10/19 03:24:45;;;;;;;21.48;12.95;;;;;;;12.57;63.40;99413.59;1708895;82;21045;-79
2022/10/19 03:27:12;;;;;;;22.15;13.78;;;;;;;12.58;63.67;99422.77;1674567;83;21186;-77
2022/10/19 03:29:42;;;;;;;17.65;13.00;;;;;;;12.61;63.66;99420.09;1734487;82;21082;-79
2022/10/19 03:32:09;;;;;;;15.72;12.28;;;;;;;12.61;63.98;99406.59;1722508;82;20966;-77
2022/10/19 03:34:35;;;;;;;16.77;11.43;;;;;;;12.62;64.61;99403.61;1708949;84;21109;-77
2022/10/19 03:37:07;;;;;;;25.23;12.98;;;;;;;12.64;64.69;99410.91;1724010;82;21085;-79
2022/10/19 03:39:33;;;;;;;15.38;12.50;;;;;;;12.67;65.03;99400.09;1710988;82;21212;-78
2022/10/19 03:42:00;;;;;;;22.73;13.10;;;;;;;12.70;65.54;99387.44;1709207;82;21061;-77
2022/10/19 03:44:27;;;;;;;17.90;13.35;;;;;;;12.72;65.55;99404.15;1730580;82;21074;-78
2022/10/19 03:46:53;;;;;;;20.25;12.37;;;;;;;12.76;66.19;99397.69;1734923;82;20934;-79
2022/10/19 03:49:20;;;;;;;16.67;12.70;;;;;;;12.79;66.46;99389.86;1734494;82;20940;-80
2022/10/19 03:51:46;;;;;;;19.85;13.08;;;;;;;12.82;66.62;99393.34;1700783;83;22086;-80
2022/10/19 03:54:14;;;;;;;18.27;12.58;;;;;;;12.85;66.56;99393.36;1708930;82;21363;-80
2022/10/19 03:56:40;;;;;;;19.87;14.50;;;;;;;12.86;66.78;99383.63;1709544;82;21534;-80
2022/10/19 03:59:09;;;;;;;14.18;11.40;;;;;;;12.88;67.21;99378.77;1709660;82;20934;-80
2022/10/19 04:01:39;;;;;;;17.23;12.47;;;;;;;12.91;67.47;99369.31;1713626;82;21046;-80
2022/10/19 04:04:10;;;;;;;19.05;12.25;;;;;;;12.91;67.77;99381.45;1734849;82;21128;-80
2022/10/19 04:06:38;;;;;;;17.40;12.05;;;;;;;12.92;67.86;99383.08;1708935;82;21022;-79
2022/10/19 04:09:06;;;;;;;20.43;14.30;;;;;;;12.93;68.11;99377.95;1712034;82;21057;-80
2022/10/19 04:11:33;;;;;;;18.70;14.50;;;;;;;12.93;68.45;99374.72;1709197;82;21070;-80
2022/10/19 04:14:00;;;;;;;17.73;12.88;;;;;;;12.93;68.55;99380.12;1708755;84;21014;-79
2022/10/19 04:16:29;;;;;;;19.17;14.58;;;;;;;12.93;69.25;99386.86;1712247;82;21848;-79
2022/10/19 04:18:55;;;;;;;19.05;13.88;;;;;;;12.94;69.34;99383.63;1734324;80;21090;-79
2022/10/19 04:21:31;;;;;;;18.95;14.15;;;;;;;12.92;70.07;99401.44;1733005;82;21047;-79
2022/10/19 04:24:04;;;;;;;18.07;13.98;;;;;;;12.93;70.22;99409.81;1681034;85;21039;-80
2022/10/19 04:26:32;;;;;;;18.65;13.68;;;;;;;12.91;70.51;99400.34;1698676;82;21162;-79
2022/10/19 04:28:59;;;;;;;15.00;12.30;;;;;;;12.90;70.52;99393.36;1717098;82;21540;-79
2022/10/19 04:31:27;;;;;;;25.90;13.40;;;;;;;12.89;70.69;99398.48;1683321;82;21120;-78
2022/10/19 04:33:54;;;;;;;18.00;13.22;;;;;;;12.87;70.79;99416.82;1734997;82;21021;-78
2022/10/19 04:36:20;;;;;;;25.90;14.47;;;;;;;12.84;70.95;99407.39;1728054;82;21083;-80
2022/10/19 04:38:47;;;;;;;19.98;13.10;;;;;;;12.83;71.11;99418.45;1726177;82;21137;-78
2022/10/19 04:41:17;;;;;;;20.75;13.85;;;;;;;12.80;71.04;99406.32;1734742;82;21141;-80
2022/10/19 04:43:45;;;;;;;20.23;13.15;;;;;;;12.77;71.36;99397.94;1715059;82;21048;-79
2022/10/19 04:46:17;;;;;;;16.30;12.10;;;;;;;12.76;71.69;99420.06;1737934;82;21062;-80
2022/10/19 04:48:45;;;;;;;22.32;13.18;;;;;;;12.75;72.00;99410.91;1691713;83;21023;-80
2022/10/19 04:51:11;;;;;;;19.42;13.15;;;;;;;12.77;72.49;99417.64;1709922;83;21082;-82
2022/10/19 04:53:40;;;;;;;24.72;14.98;;;;;;;12.78;72.70;99413.05;1709120;82;21107;-84
2022/10/19 04:56:11;;;;;;;24.37;15.38;;;;;;;12.79;72.93;99415.49;1708827;84;20993;-80
2022/10/19 04:58:38;;;;;;;26.12;14.25;;;;;;;12.79;73.09;99418.19;1718320;82;21061;-78
2022/10/19 05:01:17;;;;;;;17.92;13.25;;;;;;;12.79;73.37;99414.67;1707318;82;20998;-78
2022/10/19 05:03:44;;;;;;;19.15;14.53;;;;;;;12.77;73.53;99377.70;1708888;84;21030;-78
2022/10/19 05:06:11;;;;;;;20.32;14.00;;;;;;;12.78;73.82;99384.18;1709021;82;21134;-78
2022/10/19 05:08:37;;;;;;;17.95;14.47;;;;;;;12.79;74.11;99414.67;1722952;82;21046;-81
2022/10/19 05:11:07;;;;;;;21.95;15.30;;;;;;;12.77;74.59;99417.64;1733754;82;21062;-83
2022/10/19 05:13:35;;;;;;;20.68;14.55;;;;;;;12.74;75.18;99418.19;1693480;82;21077;-81
2022/10/19 05:16:05;;;;;;;22.37;13.03;;;;;;;12.71;75.54;99437.60;1720759;82;21046;-82
2022/10/19 05:18:33;;;;;;;18.20;12.58;;;;;;;12.68;76.14;99443.02;1732877;82;21130;-75
2022/10/19 05:21:11;;;;;;;21.90;14.53;;;;;;;12.65;76.66;99439.52;1740739;82;21320;-76
2022/10/19 05:23:38;;;;;;;21.52;13.03;;;;;;;12.64;77.11;99450.56;1698560;84;21017;-80
2022/10/19 05:26:16;;;;;;;23.67;15.10;;;;;;;12.62;77.63;99467.02;1698633;84;21631;-82
2022/10/19 05:28:48;;;;;;;23.60;15.32;;;;;;;12.60;78.17;99465.67;1722600;82;20936;-86
2022/10/19 05:31:18;;;;;;;18.20;14.53;;;;;;;12.58;78.95;99462.42;1741836;81;21175;-83
2022/10/19 05:33:46;;;;;;;20.23;14.78;;;;;;;12.56;79.57;99475.39;1740474;82;20956;-82
2022/10/19 05:36:21;;;;;;;18.85;12.75;;;;;;;12.53;80.27;99482.11;1739337;82;21129;-85
2022/10/19 05:38:55;;;;;;;20.52;12.82;;;;;;;12.51;80.91;99472.14;1727873;81;21008;-80
2022/10/19 05:41:22;;;;;;;;;;;;;;;12.54;81.55;99450.55;1724815;81;21586;-86
2022/10/19 05:46:51;;;;;;;23.52;13.95;;;;;;;12.60;82.45;99475.12;1642221;84;21068;-86
2022/10/19 05:49:22;;;;;;;15.35;13.35;;;;;;;12.62;82.95;99485.90;1687369;83;21113;-82
2022/10/19 05:51:48;;;;;;;18.42;12.03;;;;;;;12.62;83.28;99483.20;1697679;83;21548;-85
2022/10/19 05:54:17;;;;;;;14.63;10.95;;;;;;;12.58;83.72;99469.98;1697100;83;21069;-87
2022/10/19 05:56:44;;;;;;;15.75;11.22;;;;;;;12.56;84.11;99474.85;1717717;83;22326;-86
2022/10/19 05:59:15;;;;;;;17.55;12.15;;;;;;;12.57;84.35;99479.14;1717313;83;22420;-82
2022/10/19 06:01:42;;;;;;;14.90;10.20;;;;;;;12.60;84.54;99470.54;1717166;82;21594;-86
2022/10/19 06:04:09;;;;;;;11.25;9.10;;;;;;;12.63;84.57;99473.22;1712171;83;21092;-86
2022/10/19 06:06:37;;;;;;;11.57;7.80;;;;;;;12.62;84.48;99472.41;1712269;83;21537;-84
2022/10/19 06:09:04;;;;;;;7.80;7.00;;;;;;;12.62;84.37;99477.80;1695591;83;21456;-84
2022/10/19 06:11:34;;;;;;;17.85;7.03;;;;;;;12.61;84.33;99484.84;1716688;83;21002;-82
2022/10/19 06:14:06;;;;;;;9.48;5.45;;;;;;;12.61;84.20;99488.88;1695256;83;21025;-90
2022/10/19 06:16:34;;;;;;;7.58;5.35;;;;;;;12.63;84.04;99488.88;1703728;81;21036;-89
2022/10/19 06:19:09;;;;;;;7.80;5.70;;;;;;;12.66;83.89;99492.38;1707710;82;21043;-85
2022/10/19 06:21:34;;;;;;;5.92;5.33;;;;;;;12.71;83.54;99491.57;1721056;82;21157;-86
2022/10/19 06:24:03;;;;;;;6.42;5.30;;;;;;;12.74;83.35;99499.15;1732946;82;21055;-86
2022/10/19 06:26:32;;;;;;;6.87;4.67;;;;;;;12.75;83.24;99513.45;1733006;82;21042;-83
2022/10/19 06:29:01;;;;;;;5.03;4.00;;;;;;;12.76;83.02;99529.36;1730615;82;21066;-84
2022/10/19 06:31:30;;;;;;;4.15;3.60;;;;;;;12.74;82.84;99509.94;1724018;83;21090;-86
2022/10/19 06:33:56;;;;;;;6.55;3.52;;;;;;;12.74;82.71;99531.53;1723397;82;21448;-86
2022/10/19 06:36:26;;;;;;;6.47;3.65;;;;;;;12.76;82.57;99505.64;1728690;82;20960;-87
2022/10/19 06:38:53;;;;;;;4.22;3.47;;;;;;;12.76;82.47;99513.73;1692359;83;21080;-83
2022/10/19 06:41:22;;;;;;;5.42;3.33;;;;;;;12.76;82.19;99519.91;1724936;83;21171;-83
2022/10/19 06:43:54;;;;;;;3.62;3.33;;;;;;;12.75;82.19;99518.85;1696482;84;21078;-83
2022/10/19 06:46:27;;;;;;;3.85;3.02;;;;;;;12.75;82.14;99521.55;1707697;83;21159;-81
2022/10/19 06:48:59;;;;;;;3.37;2.90;;;;;;;12.71;82.10;99534.74;1723620;82;21344;-84
2022/10/19 06:51:33;;;;;;;5.67;2.85;;;;;;;12.71;81.94;99529.34;1719271;82;20984;-85
2022/10/19 06:53:59;;;;;;;3.12;2.45;;;;;;;12.71;81.80;99533.39;1725057;81;21073;-82
2022/10/19 06:56:27;;;;;;;3.65;2.70;;;;;;;12.72;81.59;99520.18;1702423;82;21109;-76
2022/10/19 06:58:53;;;;;;;4.37;2.90;;;;;;;12.71;81.62;99533.39;1701416;82;21589;-83
2022/10/19 07:01:23;;;;;;;3.62;2.50;;;;;;;12.71;81.58;99530.70;1725381;81;20991;-86
2022/10/19 07:03:54;;;;;;;3.70;2.25;;;;;;;12.72;81.37;99538.25;1726234;83;21492;-82
2022/10/19 07:06:22;;;;;;;3.62;2.30;;;;;;;12.72;81.10;99546.35;1726727;82;20971;-80
2022/10/19 07:08:51;;;;;;;3.02;2.58;;;;;;;12.72;80.79;99559.31;1706651;82;21118;-79
2022/10/19 07:11:22;;;;;;;2.65;1.87;;;;;;;12.74;80.24;99552.30;1698490;82;21231;-80
2022/10/19 07:13:51;;;;;;;3.10;2.20;;;;;;;12.74;80.08;99535.58;1659402;83;21166;-82
2022/10/19 07:16:19;;;;;;;1.60;1.50;;;;;;;12.74;80.02;99550.95;1696593;84;21178;-82
2022/10/19 07:18:51;;;;;;;4.85;1.85;;;;;;;12.73;79.56;99549.33;1726005;82;21070;-83
2022/10/19 07:21:23;;;;;;;1.80;1.55;;;;;;;12.72;79.63;99541.77;1729927;82;21072;-81
2022/10/19 07:23:55;;;;;;;2.25;1.80;;;;;;;12.71;79.71;99541.49;1708767;83;20992;-86
2022/10/19 07:26:29;;;;;;;2.52;2.20;;;;;;;12.72;79.70;99551.21;1680910;84;21608;-83
2022/10/19 07:28:57;;;;;;;3.58;2.30;;;;;;;12.74;79.65;99546.91;1709895;82;21123;-82
2022/10/19 07:31:25;;;;;;;2.85;2.30;;;;;;;12.78;79.64;99549.34;1680191;84;21710;-80
2022/10/19 07:33:55;;;;;;;3.12;2.45;;;;;;;12.79;79.41;99549.08;1713534;82;21027;-84
2022/10/19 07:36:23;;;;;;;2.47;2.20;;;;;;;12.79;79.05;99542.88;1736689;82;21088;-84
2022/10/19 07:39:09;;;;;;;1.70;1.60;;;;;;;12.79;78.86;99544.22;1714210;82;21090;-85
2022/10/19 07:41:36;;;;;;;2.40;1.35;;;;;;;12.76;78.33;99568.48;1683631;82;21111;-81
2022/10/19 07:44:05;;;;;;;2.22;1.42;;;;;;;12.73;78.03;99563.64;1680048;84;22296;-84
2022/10/19 07:46:32;;;;;;;2.15;1.95;;;;;;;12.72;77.92;99545.00;1657522;84;21063;-83
2022/10/19 07:49:08;;;;;;;1.30;1.20;;;;;;;12.70;77.85;99547.17;1684598;82;21021;-81
2022/10/19 07:51:37;;;;;;;4.78;1.37;;;;;;;12.72;77.74;99553.09;1682620;82;21082;-82
2022/10/19 07:54:04;;;;;;;3.60;2.20;;;;;;;12.75;77.65;99537.74;1719652;82;21595;-79
2022/10/19 07:56:32;;;;;;;4.20;1.57;;;;;;;12.78;77.59;99539.89;1733965;81;21532;-77
2022/10/19 07:58:59;;;;;;;2.30;1.72;;;;;;;12.84;77.58;99545.05;1724563;82;20985;-78
2022/10/19 08:01:29;;;;;;;1.85;1.70;;;;;;;12.89;77.45;99546.94;1708782;82;21672;-79
2022/10/19 08:03:57;;;;;;;2.20;2.00;;;;;;;12.93;77.33;99539.91;1708810;82;21091;-78
2022/10/19 08:06:24;;;;;;;6.87;2.05;;;;;;;12.96;77.13;99532.62;1709214;82;21127;-78
2022/10/19 08:08:52;;;;;;;2.30;2.17;;;;;;;13.00;77.10;99535.86;1709446;82;20990;-79
2022/10/19 08:11:36;;;;;;;4.40;1.98;;;;;;;13.05;76.89;99549.36;1695946;82;21118;-77
2022/10/19 08:14:01;;;;;;;2.52;1.80;;;;;;;13.06;76.57;99556.92;1687797;82;21167;-81
2022/10/19 08:16:39;;;;;;;2.80;2.37;;;;;;;13.03;76.56;99546.67;1717474;82;21138;-77
2022/10/19 08:19:09;;;;;;;2.98;2.37;;;;;;;12.99;76.58;99542.36;1704880;84;21055;-78
2022/10/19 08:21:36;;;;;;;4.05;2.35;;;;;;;12.98;76.74;99535.34;1704600;83;21075;-77
2022/10/19 08:24:04;;;;;;;4.30;1.92;;;;;;;12.98;76.83;99532.64;1719545;83;21071;-77
2022/10/19 08:26:37;;;;;;;3.52;2.70;;;;;;;12.99;76.90;99549.65;1680359;84;21654;-77
2022/10/19 08:29:11;;;;;;;3.00;2.45;;;;;;;12.97;77.01;99527.50;1685766;82;21046;-85
2022/10/19 08:31:37;;;;;;;3.42;2.72;;;;;;;12.96;77.20;99554.22;1734648;82;21042;-81
2022/10/19 08:34:07;;;;;;;4.95;2.80;;;;;;;12.94;77.26;99531.56;1703380;82;22240;-83
2022/10/19 08:36:34;;;;;;;2.42;2.20;;;;;;;12.94;77.37;99560.44;1705459;82;21090;-79
2022/10/19 08:39:03;;;;;;;2.33;2.12;;;;;;;12.92;77.49;99524.80;1705202;84;21080;-82
2022/10/19 08:41:36;;;;;;;2.55;2.33;;;;;;;12.89;77.91;99528.85;1704935;84;21049;-79
2022/10/19 08:44:21;;;;;;;3.52;3.27;;;;;;;12.88;78.11;99529.11;1704684;84;21066;-79
2022/10/19 08:47:13;;;;;;;3.42;2.85;;;;;;;12.88;78.33;99520.48;1704326;84;21071;-77
2022/10/19 08:49:39;;;;;;;3.00;2.75;;;;;;;12.90;78.48;99518.30;1705708;82;21077;-79
2022/10/19 08:52:19;;;;;;;3.90;3.30;;;;;;;12.94;78.41;99537.50;1703641;83;22418;-79
2022/10/19 08:54:58;;;;;;;3.12;2.92;;;;;;;12.97;78.40;99562.05;1699157;82;21581;-81
2022/10/19 08:57:33;;;;;;;4.00;3.70;;;;;;;12.97;78.27;99526.15;1706441;82;21519;-80
2022/10/19 09:00:26;;;;;;;2.50;2.30;;;;;;;12.98;78.34;99527.77;1662989;84;21118;-79
2022/10/19 09:03:17;;;;;;;2.65;2.15;;;;;;;13.02;78.16;99531.55;1684809;83;21082;-80
2022/10/19 09:06:02;;;;;;;3.58;2.30;;;;;;;13.05;77.90;99529.11;1705604;82;21567;-81
2022/10/19 09:08:29;;;;;;;5.97;2.33;;;;;;;13.14;77.51;99531.33;1703401;83;21010;-78
2022/10/19 09:10:59;;;;;;;2.83;1.98;;;;;;;13.20;76.86;99544.54;1695694;83;20962;-80
2022/10/19 09:13:45;;;;;;;3.55;2.15;;;;;;;13.23;76.03;99537.80;1690981;84;21058;-77
2022/10/19 09:16:15;;;;;;;3.05;2.15;;;;;;;13.21;75.92;99538.60;1703270;82;21085;-83
2022/10/19 09:18:43;;;;;;;4.20;2.98;;;;;;;13.18;76.00;99538.62;1712723;82;21039;-79
2022/10/19 09:21:19;;;;;;;4.03;2.47;;;;;;;13.17;76.08;99536.17;1732596;82;21086;-86
2022/10/19 09:24:01;;;;;;;4.90;2.02;;;;;;;13.17;76.10;99547.80;1715390;82;21571;-83
2022/10/19 09:26:31;;;;;;;3.00;2.70;;;;;;;13.11;75.73;99550.21;1723478;82;21090;-80
2022/10/19 09:29:03;;;;;;;8.13;1.77;;;;;;;13.06;75.90;99523.17;1716273;82;21019;-83
2022/10/19 09:31:38;;;;;;;2.67;2.15;;;;;;;13.05;76.06;99534.52;1702758;82;21415;-79
2022/10/19 09:34:30;;;;;;;2.50;1.85;;;;;;;13.07;75.68;99524.27;1681148;81;21009;-82
2022/10/19 09:36:58;;;;;;;5.05;1.90;;;;;;;13.13;75.33;99522.95;1721873;81;21092;-79
2022/10/19 09:39:34;;;;;;;4.37;1.87;;;;;;;13.18;74.74;99517.55;1718954;82;21011;-79
2022/10/19 09:42:23;;;;;;;5.20;2.15;;;;;;;13.21;74.23;99535.36;1716620;81;21032;-80
2022/10/19 09:44:59;;;;;;;3.37;1.80;;;;;;;13.23;73.66;99522.41;1688801;83;21758;-75
2022/10/19 09:47:36;;;;;;;9.13;7.65;;;;;;;13.26;73.70;99523.20;1724428;81;21028;-70
2022/10/19 09:50:24;;;;;;;4.75;2.67;;;;;;;13.30;73.78;99516.72;1721369;82;21090;-73
2022/10/19 09:52:56;;;;;;;6.37;2.20;;;;;;;13.35;73.57;99512.66;1728928;82;21029;-71
2022/10/19 09:55:38;;;;;;;2.55;2.25;;;;;;;13.37;73.04;99518.08;1723398;83;21101;-80
2022/10/19 09:58:26;;;;;;;2.30;2.08;;;;;;;13.37;72.60;99507.81;1722009;82;21555;-82
2022/10/19 10:00:54;;;;;;;3.25;2.37;;;;;;;13.35;72.72;99493.75;1720895;83;20989;-78
2022/10/19 10:03:34;;;;;;;2.40;2.20;;;;;;;13.39;72.93;99490.77;1724615;82;20979;-82
2022/10/19 10:06:14;;;;;;;5.80;2.40;;;;;;;13.44;73.01;99489.41;1724283;83;21074;-82
2022/10/19 10:08:50;;;;;;;3.90;1.95;;;;;;;13.52;72.93;99494.28;1712799;83;21577;-83
2022/10/19 10:11:36;;;;;;;4.42;2.15;;;;;;;13.54;72.69;99496.14;1721081;83;21014;-74
2022/10/19 10:14:11;;;;;;;2.87;1.95;;;;;;;13.56;72.59;99492.64;1696194;83;21076;-76
2022/10/19 10:16:38;;;;;;;4.78;2.60;;;;;;;13.59;72.28;99517.75;1694158;83;21088;-71
2022/10/19 10:19:07;;;;;;;3.40;2.17;;;;;;;13.56;71.89;99510.74;1697884;81;21136;-71
2022/10/19 10:21:56;;;;;;;2.87;2.37;;;;;;;13.54;71.96;99510.47;1683414;84;21019;-74
2022/10/19 10:24:28;;;;;;;8.65;3.17;;;;;;;13.52;71.89;99507.22;1656217;85;21158;-73
2022/10/19 10:27:02;;;;;;;9.28;2.75;;;;;;;13.50;72.12;99501.30;1668363;85;21114;-77
2022/10/19 10:29:35;;;;;;;6.10;2.15;;;;;;;13.52;72.15;99489.66;1682492;83;21558;-75
2022/10/19 10:32:13;;;;;;;7.50;2.37;;;;;;;13.58;72.15;99488.30;1649526;85;21038;-74
2022/10/19 10:34:43;;;;;;;2.87;2.37;;;;;;;13.64;71.96;99485.31;1660423;84;21094;-83
2022/10/19 10:37:30;;;;;;;5.50;2.60;;;;;;;13.75;71.82;99482.05;1638310;86;21153;-73
2022/10/19 10:39:57;;;;;;;4.33;2.30;;;;;;;13.84;71.35;99478.50;1682202;85;21026;-69
2022/10/19 10:42:28;;;;;;;5.55;2.47;;;;;;;13.91;70.79;99478.99;1682204;84;21021;-71
2022/10/19 10:44:57;;;;;;;4.90;2.40;;;;;;;13.94;70.52;99479.00;1670967;85;21041;-72
2022/10/19 10:47:25;;;;;;;4.50;2.12;;;;;;;13.92;70.08;99506.84;1683193;84;21102;-73
2022/10/19 10:49:55;;;;;;;2.22;1.77;;;;;;;13.86;70.08;99486.34;1681211;84;21903;-71
2022/10/19 10:52:22;;;;;;;3.45;2.60;;;;;;;13.80;70.13;99477.98;1694390;84;21043;-75
2022/10/19 10:55:10;;;;;;;5.15;2.70;;;;;;;13.74;70.51;99462.31;1710795;83;20975;-71
2022/10/19 10:57:40;;;;;;;4.35;2.90;;;;;;;13.73;70.67;99472.03;1697963;83;20980;-71
2022/10/19 11:00:20;;;;;;;3.10;2.77;;;;;;;13.73;70.80;99458.52;1658190;85;21131;-73
2022/10/19 11:03:01;;;;;;;6.05;2.65;;;;;;;13.75;70.94;99467.18;1676727;85;21223;-76
2022/10/19 11:05:31;;;;;;;4.40;2.83;;;;;;;13.79;70.98;99460.13;1673531;84;21057;-76
2022/10/19 11:08:17;;;;;;;3.35;2.40;;;;;;;13.85;71.01;99460.39;1685350;84;21061;-82
2022/10/19 11:11:00;;;;;;;3.85;2.72;;;;;;;13.91;70.87;99460.06;1682296;83;21075;-75
2022/10/19 11:14:01;;;;;;;3.05;2.30;;;;;;;13.97;69.96;99467.62;1678005;84;21070;-67
2022/10/19 11:16:32;;;;;;;3.92;2.55;;;;;;;13.98;69.34;99454.38;1682268;85;21153;-71
2022/10/19 11:19:13;;;;;;;3.52;2.47;;;;;;;13.99;69.18;99451.94;1706060;81;20908;-69
2022/10/19 11:22:04;;;;;;;3.85;1.72;;;;;;;13.98;69.45;99443.55;1715188;83;21038;-72
2022/10/19 11:24:54;;;;;;;5.22;2.17;;;;;;;13.98;68.87;99456.53;1725130;82;20958;-82
2022/10/19 11:27:58;;;;;;;5.42;2.60;;;;;;;13.95;67.18;99439.53;1696391;84;22188;-79
2022/10/19 11:30:25;;;;;;;2.55;2.33;;;;;;;14.03;67.05;99429.20;1714362;83;21290;-76
2022/10/19 11:33:08;;;;;;;1.95;1.85;;;;;;;14.18;66.54;99419.11;1725663;83;21023;-76
2022/10/19 11:35:58;;;;;;;3.27;2.00;;;;;;;14.31;64.92;99410.91;1727810;83;20963;-75
2022/10/19 11:38:38;;;;;;;2.12;1.92;;;;;;;14.51;63.22;99400.52;1728179;82;21626;-69
2022/10/19 11:41:43;;;;;;;1.62;1.50;;;;;;;14.64;60.02;99397.96;1730970;82;21096;-70
2022/10/19 11:44:22;;;;;;;1.72;1.62;;;;;;;14.80;56.92;99421.13;1724843;81;21131;-76
2022/10/19 11:47:21;;;;;;;2.35;1.50;;;;;;;14.90;56.12;99397.75;1719751;82;21516;-83
2022/10/19 11:50:14;;;;;;;4.30;2.12;;;;;;;15.01;55.61;99383.80;1720911;82;21010;-85
2022/10/19 11:53:16;;;;;;;3.20;1.80;;;;;;;15.10;54.91;99398.91;1685939;83;21107;-80
2022/10/19 11:56:06;;;;;;;2.70;2.42;;;;;;;15.11;54.67;99391.02;1694340;84;21056;-80